sensor_id;sensor_type;location;lat;lon;timestamp;temperature;humidity
19646;DHT22;9971;52.446;13.452;2024-03-17T00:00:17;19.80;59.60
19646;DHT22;9971;52.446;13.452;2024-03-17T00:05:20;19.90;60.10
19646;DHT22;9971;52.446;13.452;2024-03-17T00:10:22;19.90;59.80
19646;DHT22;9971;52.446;13.452;2024-03-17T00:15:24;20.00;58.90
19646;DHT22;9971;52.446;13.452;2024-03-17T00:20:27;20.00;58.90
19646;DHT22;9971;52.446;13.452;2024-03-17T00:25:29;20.00;58.60
19646;DHT22;9971;52.446;13.452;2024-03-17T00:30:31;20.00;58.90
19646;DHT22;9971;52.446;13.452;2024-03-17T00:35:34;20.00;58.50
19646;DHT22;9971;52.446;13.452;2024-03-17T00:40:38;20.00;58.30
19646;DHT22;9971;52.446;13.452;2024-03-17T00:45:39;20.10;59.10
19646;DHT22;9971;52.446;13.452;2024-03-17T00:50:42;20.10;59.00
19646;DHT22;9971;52.446;13.452;2024-03-17T00:55:44;20.10;59.80
19646;DHT22;9971;52.446;13.452;2024-03-17T01:00:46;20.20;58.90
19646;DHT22;9971;52.446;13.452;2024-03-17T01:05:48;20.10;58.40
19646;DHT22;9971;52.446;13.452;2024-03-17T01:10:51;20.10;58.10
19646;DHT22;9971;52.446;13.452;2024-03-17T01:15:53;20.10;58.00
19646;DHT22;9971;52.446;13.452;2024-03-17T01:20:56;20.10;57.50
19646;DHT22;9971;52.446;13.452;2024-03-17T01:25:58;20.10;58.80
19646;DHT22;9971;52.446;13.452;2024-03-17T01:31:05;20.10;58.30
19646;DHT22;9971;52.446;13.452;2024-03-17T01:36:03;20.10;58.40
19646;DHT22;9971;52.446;13.452;2024-03-17T01:41:06;20.10;58.30
19646;DHT22;9971;52.446;13.452;2024-03-17T01:46:11;20.10;57.90
19646;DHT22;9971;52.446;13.452;2024-03-17T01:51:10;20.10;58.80
19646;DHT22;9971;52.446;13.452;2024-03-17T01:56:12;20.20;59.00
19646;DHT22;9971;52.446;13.452;2024-03-17T02:01:14;20.20;58.70
19646;DHT22;9971;52.446;13.452;2024-03-17T02:06:17;20.20;58.80
19646;DHT22;9971;52.446;13.452;2024-03-17T02:11:26;20.30;58.60
19646;DHT22;9971;52.446;13.452;2024-03-17T02:16:28;20.30;58.60
19646;DHT22;9971;52.446;13.452;2024-03-17T02:21:30;20.30;58.60
19646;DHT22;9971;52.446;13.452;2024-03-17T02:26:33;20.30;58.20
19646;DHT22;9971;52.446;13.452;2024-03-17T02:31:35;20.30;57.90
19646;DHT22;9971;52.446;13.452;2024-03-17T02:36:38;20.30;57.30
19646;DHT22;9971;52.446;13.452;2024-03-17T02:41:44;20.40;58.50
19646;DHT22;9971;52.446;13.452;2024-03-17T02:46:45;20.40;59.00
19646;DHT22;9971;52.446;13.452;2024-03-17T02:51:47;20.40;57.90
19646;DHT22;9971;52.446;13.452;2024-03-17T02:56:50;20.50;58.30
19646;DHT22;9971;52.446;13.452;2024-03-17T03:01:52;20.50;58.30
19646;DHT22;9971;52.446;13.452;2024-03-17T03:06:54;20.50;58.90
19646;DHT22;9971;52.446;13.452;2024-03-17T03:11:57;20.50;58.40
19646;DHT22;9971;52.446;13.452;2024-03-17T03:16:59;20.60;58.30
19646;DHT22;9971;52.446;13.452;2024-03-17T03:22:01;20.60;58.00
19646;DHT22;9971;52.446;13.452;2024-03-17T03:27:04;20.60;57.30
19646;DHT22;9971;52.446;13.452;2024-03-17T03:32:06;20.60;56.50
19646;DHT22;9971;52.446;13.452;2024-03-17T03:37:09;20.60;57.80
19646;DHT22;9971;52.446;13.452;2024-03-17T03:42:11;20.70;57.80
19646;DHT22;9971;52.446;13.452;2024-03-17T03:47:13;20.70;57.20
19646;DHT22;9971;52.446;13.452;2024-03-17T03:52:16;20.70;56.70
19646;DHT22;9971;52.446;13.452;2024-03-17T03:57:18;20.70;56.20
19646;DHT22;9971;52.446;13.452;2024-03-17T04:02:21;20.70;56.80
19646;DHT22;9971;52.446;13.452;2024-03-17T04:07:23;20.70;56.90
19646;DHT22;9971;52.446;13.452;2024-03-17T04:12:25;20.70;57.60
19646;DHT22;9971;52.446;13.452;2024-03-17T04:17:27;20.70;58.10
19646;DHT22;9971;52.446;13.452;2024-03-17T04:22:29;20.80;58.50
19646;DHT22;9971;52.446;13.452;2024-03-17T04:27:32;20.80;57.20
19646;DHT22;9971;52.446;13.452;2024-03-17T04:32:34;20.80;57.50
19646;DHT22;9971;52.446;13.452;2024-03-17T04:37:36;20.80;57.10
19646;DHT22;9971;52.446;13.452;2024-03-17T04:42:39;20.70;56.50
19646;DHT22;9971;52.446;13.452;2024-03-17T04:47:41;20.70;56.70
19646;DHT22;9971;52.446;13.452;2024-03-17T04:52:44;20.70;56.50
19646;DHT22;9971;52.446;13.452;2024-03-17T04:57:46;20.70;56.70
19646;DHT22;9971;52.446;13.452;2024-03-17T05:02:49;20.70;57.50
19646;DHT22;9971;52.446;13.452;2024-03-17T05:07:51;20.70;56.40
19646;DHT22;9971;52.446;13.452;2024-03-17T05:12:53;20.70;58.00
19646;DHT22;9971;52.446;13.452;2024-03-17T05:17:56;20.70;57.10
19646;DHT22;9971;52.446;13.452;2024-03-17T05:22:58;20.70;58.20
19646;DHT22;9971;52.446;13.452;2024-03-17T05:28:01;20.70;58.20
19646;DHT22;9971;52.446;13.452;2024-03-17T05:33:03;20.70;59.10
19646;DHT22;9971;52.446;13.452;2024-03-17T05:38:05;20.70;57.70
19646;DHT22;9971;52.446;13.452;2024-03-17T05:43:08;20.70;56.70
19646;DHT22;9971;52.446;13.452;2024-03-17T05:48:10;20.70;57.50
19646;DHT22;9971;52.446;13.452;2024-03-17T05:53:13;20.70;56.90
19646;DHT22;9971;52.446;13.452;2024-03-17T05:58:15;20.70;58.00
19646;DHT22;9971;52.446;13.452;2024-03-17T06:03:18;20.80;58.20
19646;DHT22;9971;52.446;13.452;2024-03-17T06:08:20;20.80;57.90
19646;DHT22;9971;52.446;13.452;2024-03-17T06:13:22;20.80;56.90
19646;DHT22;9971;52.446;13.452;2024-03-17T06:18:24;20.80;57.30
19646;DHT22;9971;52.446;13.452;2024-03-17T06:23:27;20.90;57.30
19646;DHT22;9971;52.446;13.452;2024-03-17T06:28:29;20.80;56.30
19646;DHT22;9971;52.446;13.452;2024-03-17T06:33:32;20.70;57.10
19646;DHT22;9971;52.446;13.452;2024-03-17T06:38:34;20.70;58.20
19646;DHT22;9971;52.446;13.452;2024-03-17T06:43:37;20.60;57.00
19646;DHT22;9971;52.446;13.452;2024-03-17T06:48:39;20.50;58.00
19646;DHT22;9971;52.446;13.452;2024-03-17T06:53:42;20.40;58.40
19646;DHT22;9971;52.446;13.452;2024-03-17T06:58:44;20.40;57.90
19646;DHT22;9971;52.446;13.452;2024-03-17T07:03:47;20.40;58.50
19646;DHT22;9971;52.446;13.452;2024-03-17T07:08:49;20.40;58.50
19646;DHT22;9971;52.446;13.452;2024-03-17T07:13:52;20.40;59.00
19646;DHT22;9971;52.446;13.452;2024-03-17T07:18:54;20.40;57.30
19646;DHT22;9971;52.446;13.452;2024-03-17T07:23:57;20.40;57.90
19646;DHT22;9971;52.446;13.452;2024-03-17T07:29:00;20.40;58.20
19646;DHT22;9971;52.446;13.452;2024-03-17T07:34:03;20.40;58.80
19646;DHT22;9971;52.446;13.452;2024-03-17T07:39:06;20.40;59.40
19646;DHT22;9971;52.446;13.452;2024-03-17T07:44:09;20.50;57.40
19646;DHT22;9971;52.446;13.452;2024-03-17T07:49:11;20.50;58.00
19646;DHT22;9971;52.446;13.452;2024-03-17T07:54:14;20.40;57.10
19646;DHT22;9971;52.446;13.452;2024-03-17T07:59:16;20.40;57.60
19646;DHT22;9971;52.446;13.452;2024-03-17T08:04:18;20.40;58.60
19646;DHT22;9971;52.446;13.452;2024-03-17T08:09:21;20.30;55.70
19646;DHT22;9971;52.446;13.452;2024-03-17T08:14:23;20.30;56.40
19646;DHT22;9971;52.446;13.452;2024-03-17T08:19:25;20.30;56.60
19646;DHT22;9971;52.446;13.452;2024-03-17T08:24:28;20.20;55.80
19646;DHT22;9971;52.446;13.452;2024-03-17T08:29:30;20.20;55.30
19646;DHT22;9971;52.446;13.452;2024-03-17T08:34:33;20.10;54.40
19646;DHT22;9971;52.446;13.452;2024-03-17T08:39:35;20.00;55.00
19646;DHT22;9971;52.446;13.452;2024-03-17T08:44:38;19.80;53.70
19646;DHT22;9971;52.446;13.452;2024-03-17T08:49:40;19.70;54.50
19646;DHT22;9971;52.446;13.452;2024-03-17T08:54:45;19.70;55.10
19646;DHT22;9971;52.446;13.452;2024-03-17T08:59:47;19.60;56.10
19646;DHT22;9971;52.446;13.452;2024-03-17T09:04:49;19.60;54.60
19646;DHT22;9971;52.446;13.452;2024-03-17T09:09:52;19.50;54.80
19646;DHT22;9971;52.446;13.452;2024-03-17T09:14:54;19.50;55.70
19646;DHT22;9971;52.446;13.452;2024-03-17T09:19:57;19.50;55.70
19646;DHT22;9971;52.446;13.452;2024-03-17T09:25:00;19.50;55.60
19646;DHT22;9971;52.446;13.452;2024-03-17T09:30:03;19.50;55.20
19646;DHT22;9971;52.446;13.452;2024-03-17T09:35:05;19.50;56.00
19646;DHT22;9971;52.446;13.452;2024-03-17T09:40:13;19.50;55.60
19646;DHT22;9971;52.446;13.452;2024-03-17T09:45:10;19.50;55.70
19646;DHT22;9971;52.446;13.452;2024-03-17T09:50:13;19.60;56.00
19646;DHT22;9971;52.446;13.452;2024-03-17T09:55:15;19.60;54.70
19646;DHT22;9971;52.446;13.452;2024-03-17T10:00:17;19.60;54.50
19646;DHT22;9971;52.446;13.452;2024-03-17T10:05:20;19.60;54.00
19646;DHT22;9971;52.446;13.452;2024-03-17T10:10:22;19.70;55.40
19646;DHT22;9971;52.446;13.452;2024-03-17T10:15:24;19.70;56.00
19646;DHT22;9971;52.446;13.452;2024-03-17T10:20:27;19.80;54.50
19646;DHT22;9971;52.446;13.452;2024-03-17T10:25:29;19.80;53.20
19646;DHT22;9971;52.446;13.452;2024-03-17T10:30:31;19.80;52.30
19646;DHT22;9971;52.446;13.452;2024-03-17T10:35:34;19.70;53.60
19646;DHT22;9971;52.446;13.452;2024-03-17T10:40:36;19.70;53.70
19646;DHT22;9971;52.446;13.452;2024-03-17T10:45:38;19.70;54.20
19646;DHT22;9971;52.446;13.452;2024-03-17T10:50:40;19.80;53.90
19646;DHT22;9971;52.446;13.452;2024-03-17T10:55:44;19.80;53.00
19646;DHT22;9971;52.446;13.452;2024-03-17T11:00:45;19.80;52.60
19646;DHT22;9971;52.446;13.452;2024-03-17T11:05:48;19.80;53.20
19646;DHT22;9971;52.446;13.452;2024-03-17T11:10:50;19.80;53.90
19646;DHT22;9971;52.446;13.452;2024-03-17T11:15:51;19.80;53.10
19646;DHT22;9971;52.446;13.452;2024-03-17T11:21:00;19.90;53.60
19646;DHT22;9971;52.446;13.452;2024-03-17T11:26:01;19.90;52.60
19646;DHT22;9971;52.446;13.452;2024-03-17T11:31:03;19.90;52.30
19646;DHT22;9971;52.446;13.452;2024-03-17T11:36:36;19.90;51.70
19646;DHT22;9971;52.446;13.452;2024-03-17T11:41:38;19.90;51.30
19646;DHT22;9971;52.446;13.452;2024-03-17T11:46:39;19.90;51.30
19646;DHT22;9971;52.446;13.452;2024-03-17T11:51:41;20.00;52.10
19646;DHT22;9971;52.446;13.452;2024-03-17T11:56:45;20.00;52.20
19646;DHT22;9971;52.446;13.452;2024-03-17T12:01:47;20.00;51.70
19646;DHT22;9971;52.446;13.452;2024-03-17T12:06:52;20.00;51.70
19646;DHT22;9971;52.446;13.452;2024-03-17T12:12:00;19.90;50.30
19646;DHT22;9971;52.446;13.452;2024-03-17T12:17:01;19.90;50.70
19646;DHT22;9971;52.446;13.452;2024-03-17T12:22:03;20.00;50.90
19646;DHT22;9971;52.446;13.452;2024-03-17T12:27:05;19.90;51.70
19646;DHT22;9971;52.446;13.452;2024-03-17T12:32:16;19.90;50.60
19646;DHT22;9971;52.446;13.452;2024-03-17T12:37:18;19.90;50.50
19646;DHT22;9971;52.446;13.452;2024-03-17T12:42:23;19.90;49.50
19646;DHT22;9971;52.446;13.452;2024-03-17T12:47:25;19.80;50.40
19646;DHT22;9971;52.446;13.452;2024-03-17T12:52:28;19.90;51.40
19646;DHT22;9971;52.446;13.452;2024-03-17T12:57:29;19.90;51.00
19646;DHT22;9971;52.446;13.452;2024-03-17T13:02:41;19.90;49.50
19646;DHT22;9971;52.446;13.452;2024-03-17T13:07:44;19.90;49.80
19646;DHT22;9971;52.446;13.452;2024-03-17T13:12:47;19.90;48.10
19646;DHT22;9971;52.446;13.452;2024-03-17T13:17:48;20.00;48.50
19646;DHT22;9971;52.446;13.452;2024-03-17T13:22:51;19.90;49.00
19646;DHT22;9971;52.446;13.452;2024-03-17T13:27:53;19.90;49.70
19646;DHT22;9971;52.446;13.452;2024-03-17T13:32:55;19.90;48.90
19646;DHT22;9971;52.446;13.452;2024-03-17T13:37:57;19.90;48.70
19646;DHT22;9971;52.446;13.452;2024-03-17T13:42:59;19.90;49.10
19646;DHT22;9971;52.446;13.452;2024-03-17T13:48:03;19.80;49.10
19646;DHT22;9971;52.446;13.452;2024-03-17T13:53:04;19.80;48.90
19646;DHT22;9971;52.446;13.452;2024-03-17T13:58:06;19.80;49.60
19646;DHT22;9971;52.446;13.452;2024-03-17T14:03:09;19.80;49.50
19646;DHT22;9971;52.446;13.452;2024-03-17T14:08:11;19.80;49.10
19646;DHT22;9971;52.446;13.452;2024-03-17T14:13:13;19.90;50.60
19646;DHT22;9971;52.446;13.452;2024-03-17T14:18:16;20.00;49.20
19646;DHT22;9971;52.446;13.452;2024-03-17T14:23:19;20.00;50.30
19646;DHT22;9971;52.446;13.452;2024-03-17T14:28:21;20.00;50.40
19646;DHT22;9971;52.446;13.452;2024-03-17T14:33:23;20.10;49.30
19646;DHT22;9971;52.446;13.452;2024-03-17T14:38:26;20.20;49.70
19646;DHT22;9971;52.446;13.452;2024-03-17T14:43:28;20.20;49.10
19646;DHT22;9971;52.446;13.452;2024-03-17T14:48:31;20.20;48.70
19646;DHT22;9971;52.446;13.452;2024-03-17T14:53:33;20.30;48.50
19646;DHT22;9971;52.446;13.452;2024-03-17T14:58:35;20.30;48.40
19646;DHT22;9971;52.446;13.452;2024-03-17T15:03:37;20.30;49.00
19646;DHT22;9971;52.446;13.452;2024-03-17T15:08:40;20.30;48.40
19646;DHT22;9971;52.446;13.452;2024-03-17T15:13:42;20.30;48.60
19646;DHT22;9971;52.446;13.452;2024-03-17T15:18:44;20.30;48.70
19646;DHT22;9971;52.446;13.452;2024-03-17T15:23:46;20.30;48.30
19646;DHT22;9971;52.446;13.452;2024-03-17T15:28:48;20.40;48.80
19646;DHT22;9971;52.446;13.452;2024-03-17T15:33:50;20.40;48.60
19646;DHT22;9971;52.446;13.452;2024-03-17T15:38:53;20.40;48.50
19646;DHT22;9971;52.446;13.452;2024-03-17T15:43:55;20.50;49.90
19646;DHT22;9971;52.446;13.452;2024-03-17T15:48:58;20.50;48.30
19646;DHT22;9971;52.446;13.452;2024-03-17T15:54:00;20.60;48.90
19646;DHT22;9971;52.446;13.452;2024-03-17T15:59:03;20.60;48.80
19646;DHT22;9971;52.446;13.452;2024-03-17T16:04:05;20.60;48.00
19646;DHT22;9971;52.446;13.452;2024-03-17T16:09:07;20.60;48.30
19646;DHT22;9971;52.446;13.452;2024-03-17T16:14:09;20.60;48.70
19646;DHT22;9971;52.446;13.452;2024-03-17T16:19:12;20.70;49.10
19646;DHT22;9971;52.446;13.452;2024-03-17T16:24:14;20.70;49.20
19646;DHT22;9971;52.446;13.452;2024-03-17T16:29:16;20.70;48.60
19646;DHT22;9971;52.446;13.452;2024-03-17T16:34:18;20.80;49.40
19646;DHT22;9971;52.446;13.452;2024-03-17T16:39:20;20.80;49.50
19646;DHT22;9971;52.446;13.452;2024-03-17T16:44:31;20.90;50.00
19646;DHT22;9971;52.446;13.452;2024-03-17T16:49:30;20.90;50.60
19646;DHT22;9971;52.446;13.452;2024-03-17T16:54:32;21.00;50.30
19646;DHT22;9971;52.446;13.452;2024-03-17T16:59:34;21.00;51.10
19646;DHT22;9971;52.446;13.452;2024-03-17T17:04:37;21.10;51.80
19646;DHT22;9971;52.446;13.452;2024-03-17T17:09:39;21.10;52.40
19646;DHT22;9971;52.446;13.452;2024-03-17T17:14:42;21.10;52.80
19646;DHT22;9971;52.446;13.452;2024-03-17T17:19:45;21.20;53.30
19646;DHT22;9971;52.446;13.452;2024-03-17T17:24:47;21.20;53.80
19646;DHT22;9971;52.446;13.452;2024-03-17T17:29:49;21.30;54.20
19646;DHT22;9971;52.446;13.452;2024-03-17T17:34:52;21.30;55.00
19646;DHT22;9971;52.446;13.452;2024-03-17T17:39:55;21.30;55.00
19646;DHT22;9971;52.446;13.452;2024-03-17T17:44:57;21.40;55.50
19646;DHT22;9971;52.446;13.452;2024-03-17T17:50:00;21.40;56.00
19646;DHT22;9971;52.446;13.452;2024-03-17T17:55:02;21.50;56.40
19646;DHT22;9971;52.446;13.452;2024-03-17T18:00:05;21.50;56.90
19646;DHT22;9971;52.446;13.452;2024-03-17T18:05:08;21.50;57.10
19646;DHT22;9971;52.446;13.452;2024-03-17T18:10:10;21.60;57.70
19646;DHT22;9971;52.446;13.452;2024-03-17T18:15:13;21.70;58.00
19646;DHT22;9971;52.446;13.452;2024-03-17T18:20:15;21.70;59.10
19646;DHT22;9971;52.446;13.452;2024-03-17T18:25:18;21.70;59.00
19646;DHT22;9971;52.446;13.452;2024-03-17T18:30:20;21.80;59.30
19646;DHT22;9971;52.446;13.452;2024-03-17T18:35:23;21.80;59.70
19646;DHT22;9971;52.446;13.452;2024-03-17T18:40:25;21.90;60.30
19646;DHT22;9971;52.446;13.452;2024-03-17T18:45:29;21.90;61.30
19646;DHT22;9971;52.446;13.452;2024-03-17T18:50:29;21.90;61.70
19646;DHT22;9971;52.446;13.452;2024-03-17T18:55:32;21.90;62.20
19646;DHT22;9971;52.446;13.452;2024-03-17T19:00:34;22.00;62.80
19646;DHT22;9971;52.446;13.452;2024-03-17T19:05:37;22.00;63.30
19646;DHT22;9971;52.446;13.452;2024-03-17T19:10:39;22.10;63.80
19646;DHT22;9971;52.446;13.452;2024-03-17T19:15:41;22.10;64.10
19646;DHT22;9971;52.446;13.452;2024-03-17T19:20:43;22.10;64.60
19646;DHT22;9971;52.446;13.452;2024-03-17T19:25:46;22.20;65.20
19646;DHT22;9971;52.446;13.452;2024-03-17T19:30:53;22.20;65.60
19646;DHT22;9971;52.446;13.452;2024-03-17T19:35:51;22.20;65.90
19646;DHT22;9971;52.446;13.452;2024-03-17T19:40:53;22.30;66.30
19646;DHT22;9971;52.446;13.452;2024-03-17T19:46:03;22.30;66.70
19646;DHT22;9971;52.446;13.452;2024-03-17T19:51:08;22.30;66.90
19646;DHT22;9971;52.446;13.452;2024-03-17T19:56:10;22.40;67.30
19646;DHT22;9971;52.446;13.452;2024-03-17T20:01:12;22.40;67.50
19646;DHT22;9971;52.446;13.452;2024-03-17T20:06:19;22.40;67.70
19646;DHT22;9971;52.446;13.452;2024-03-17T20:11:21;22.40;67.90
19646;DHT22;9971;52.446;13.452;2024-03-17T20:16:24;22.50;68.20
19646;DHT22;9971;52.446;13.452;2024-03-17T20:21:27;22.50;69.10
19646;DHT22;9971;52.446;13.452;2024-03-17T20:26:29;22.40;68.50
19646;DHT22;9971;52.446;13.452;2024-03-17T20:31:32;22.50;68.70
19646;DHT22;9971;52.446;13.452;2024-03-17T20:36:34;22.50;69.00
19646;DHT22;9971;52.446;13.452;2024-03-17T20:41:37;22.50;69.30
19646;DHT22;9971;52.446;13.452;2024-03-17T20:46:39;22.50;69.40
19646;DHT22;9971;52.446;13.452;2024-03-17T20:51:41;22.50;69.60
19646;DHT22;9971;52.446;13.452;2024-03-17T20:56:44;22.60;70.00
19646;DHT22;9971;52.446;13.452;2024-03-17T21:01:46;22.50;70.10
19646;DHT22;9971;52.446;13.452;2024-03-17T21:06:49;22.50;70.20
19646;DHT22;9971;52.446;13.452;2024-03-17T21:11:51;22.60;70.30
19646;DHT22;9971;52.446;13.452;2024-03-17T21:16:54;22.50;70.50
19646;DHT22;9971;52.446;13.452;2024-03-17T21:21:56;22.60;70.70
19646;DHT22;9971;52.446;13.452;2024-03-17T21:26:58;22.60;70.80
19646;DHT22;9971;52.446;13.452;2024-03-17T21:32:01;22.50;70.90
19646;DHT22;9971;52.446;13.452;2024-03-17T21:37:03;22.50;71.10
19646;DHT22;9971;52.446;13.452;2024-03-17T21:42:06;22.60;71.30
19646;DHT22;9971;52.446;13.452;2024-03-17T21:47:08;22.50;71.30
19646;DHT22;9971;52.446;13.452;2024-03-17T21:52:11;22.60;71.50
19646;DHT22;9971;52.446;13.452;2024-03-17T21:57:13;22.60;71.60
19646;DHT22;9971;52.446;13.452;2024-03-17T22:02:16;22.60;71.90
19646;DHT22;9971;52.446;13.452;2024-03-17T22:07:18;22.60;72.40
19646;DHT22;9971;52.446;13.452;2024-03-17T22:12:21;22.60;72.10
19646;DHT22;9971;52.446;13.452;2024-03-17T22:17:23;22.60;72.20
19646;DHT22;9971;52.446;13.452;2024-03-17T22:22:26;22.60;72.30
19646;DHT22;9971;52.446;13.452;2024-03-17T22:27:28;22.50;72.40
19646;DHT22;9971;52.446;13.452;2024-03-17T22:32:30;22.50;72.60
19646;DHT22;9971;52.446;13.452;2024-03-17T22:37:33;22.50;72.60
19646;DHT22;9971;52.446;13.452;2024-03-17T22:42:35;22.50;72.80
19646;DHT22;9971;52.446;13.452;2024-03-17T22:47:37;22.50;72.90
19646;DHT22;9971;52.446;13.452;2024-03-17T22:52:40;22.40;73.00
19646;DHT22;9971;52.446;13.452;2024-03-17T22:57:42;22.40;73.10
19646;DHT22;9971;52.446;13.452;2024-03-17T23:02:45;22.40;73.20
19646;DHT22;9971;52.446;13.452;2024-03-17T23:07:47;22.40;73.50
19646;DHT22;9971;52.446;13.452;2024-03-17T23:12:50;22.40;73.60
19646;DHT22;9971;52.446;13.452;2024-03-17T23:17:52;22.50;73.80
19646;DHT22;9971;52.446;13.452;2024-03-17T23:22:55;22.40;74.60
19646;DHT22;9971;52.446;13.452;2024-03-17T23:27:57;22.40;74.80
19646;DHT22;9971;52.446;13.452;2024-03-17T23:33:00;22.40;74.00
19646;DHT22;9971;52.446;13.452;2024-03-17T23:38:02;22.40;74.10
19646;DHT22;9971;52.446;13.452;2024-03-17T23:43:04;22.40;74.30
19646;DHT22;9971;52.446;13.452;2024-03-17T23:48:06;22.30;74.30
19646;DHT22;9971;52.446;13.452;2024-03-17T23:53:09;22.30;75.20
19646;DHT22;9971;52.446;13.452;2024-03-17T23:58:11;22.30;74.50
